sensor_id;sensor_type;location;lat;lon;timestamp;P1;durP1;ratioP1;P2;durP2;ratioP2
35897;SDS011;21997;47.118;15.346;2023-06-10T00:00:00;6.03;;;4.43;;
35897;SDS011;21997;47.118;15.346;2023-06-10T00:02:28;6.47;;;3.93;;
35897;SDS011;21997;47.118;15.346;2023-06-10T00:04:54;4.93;;;4.50;;
35897;SDS011;21997;47.118;15.346;2023-06-10T00:07:20;4.63;;;3.93;;
35897;SDS011;21997;47.118;15.346;2023-06-10T00:09:45;4.57;;;4.17;;
35897;SDS011;21997;47.118;15.346;2023-06-10T00:12:10;4.53;;;4.13;;
35897;SDS011;21997;47.118;15.346;2023-06-10T00:14:37;5.13;;;4.33;;
35897;SDS011;21997;47.118;15.346;2023-06-10T00:17:03;5.70;;;4.50;;
35897;SDS011;21997;47.118;15.346;2023-06-10T00:19:29;5.70;;;4.97;;
35897;SDS011;21997;47.118;15.346;2023-06-10T00:21:58;6.97;;;4.87;;
35897;SDS011;21997;47.118;15.346;2023-06-10T00:24:24;5.63;;;4.67;;
35897;SDS011;21997;47.118;15.346;2023-06-10T00:26:49;6.60;;;5.13;;
35897;SDS011;21997;47.118;15.346;2023-06-10T00:29:14;5.50;;;4.70;;
35897;SDS011;21997;47.118;15.346;2023-06-10T00:31:40;5.23;;;4.43;;
35897;SDS011;21997;47.118;15.346;2023-06-10T00:34:06;6.33;;;5.00;;
35897;SDS011;21997;47.118;15.346;2023-06-10T00:36:32;7.87;;;5.33;;
35897;SDS011;21997;47.118;15.346;2023-06-10T00:38:57;5.60;;;5.10;;
35897;SDS011;21997;47.118;15.346;2023-06-10T00:41:23;5.87;;;5.23;;
35897;SDS011;21997;47.118;15.346;2023-06-10T00:43:48;7.20;;;5.30;;
35897;SDS011;21997;47.118;15.346;2023-06-10T00:46:13;6.30;;;5.67;;
35897;SDS011;21997;47.118;15.346;2023-06-10T00:48:40;6.70;;;5.80;;
35897;SDS011;21997;47.118;15.346;2023-06-10T00:51:06;6.87;;;5.77;;
35897;SDS011;21997;47.118;15.346;2023-06-10T00:53:34;6.37;;;5.77;;
35897;SDS011;21997;47.118;15.346;2023-06-10T00:56:00;6.17;;;5.57;;
35897;SDS011;21997;47.118;15.346;2023-06-10T00:58:25;7.93;;;5.50;;
35897;SDS011;21997;47.118;15.346;2023-06-10T01:00:51;7.13;;;5.87;;
35897;SDS011;21997;47.118;15.346;2023-06-10T01:03:17;6.63;;;5.93;;
35897;SDS011;21997;47.118;15.346;2023-06-10T01:05:43;7.07;;;6.03;;
35897;SDS011;21997;47.118;15.346;2023-06-10T01:08:09;7.43;;;6.50;;
35897;SDS011;21997;47.118;15.346;2023-06-10T01:10:43;9.17;;;6.47;;
35897;SDS011;21997;47.118;15.346;2023-06-10T01:13:15;6.50;;;5.90;;
35897;SDS011;21997;47.118;15.346;2023-06-10T01:15:41;6.80;;;5.87;;
35897;SDS011;21997;47.118;15.346;2023-06-10T01:18:07;7.70;;;6.20;;
35897;SDS011;21997;47.118;15.346;2023-06-10T01:20:34;6.80;;;6.10;;
35897;SDS011;21997;47.118;15.346;2023-06-10T01:23:02;6.63;;;5.93;;
35897;SDS011;21997;47.118;15.346;2023-06-10T01:25:30;8.57;;;6.40;;
35897;SDS011;21997;47.118;15.346;2023-06-10T01:30:37;6.77;;;5.93;;
35897;SDS011;21997;47.118;15.346;2023-06-10T01:33:33;7.10;;;5.90;;
35897;SDS011;21997;47.118;15.346;2023-06-10T01:36:00;7.07;;;5.47;;
35897;SDS011;21997;47.118;15.346;2023-06-10T01:38:27;6.70;;;5.50;;
35897;SDS011;21997;47.118;15.346;2023-06-10T01:40:56;7.23;;;5.37;;
35897;SDS011;21997;47.118;15.346;2023-06-10T01:43:21;7.33;;;6.13;;
35897;SDS011;21997;47.118;15.346;2023-06-10T01:45:47;6.97;;;6.27;;
35897;SDS011;21997;47.118;15.346;2023-06-10T01:48:12;7.83;;;6.17;;
35897;SDS011;21997;47.118;15.346;2023-06-10T01:50:38;6.67;;;6.07;;
35897;SDS011;21997;47.118;15.346;2023-06-10T01:53:04;6.70;;;6.00;;
35897;SDS011;21997;47.118;15.346;2023-06-10T01:55:30;6.97;;;6.27;;
35897;SDS011;21997;47.118;15.346;2023-06-10T01:57:56;6.53;;;5.93;;
35897;SDS011;21997;47.118;15.346;2023-06-10T02:00:21;7.03;;;6.20;;
35897;SDS011;21997;47.118;15.346;2023-06-10T02:02:46;5.57;;;4.97;;
35897;SDS011;21997;47.118;15.346;2023-06-10T02:05:12;10.13;;;5.50;;
35897;SDS011;21997;47.118;15.346;2023-06-10T02:07:37;6.40;;;5.47;;
35897;SDS011;21997;47.118;15.346;2023-06-10T02:10:04;5.77;;;5.27;;
35897;SDS011;21997;47.118;15.346;2023-06-10T02:12:30;6.10;;;5.50;;
35897;SDS011;21997;47.118;15.346;2023-06-10T02:14:56;9.03;;;5.80;;
35897;SDS011;21997;47.118;15.346;2023-06-10T02:17:21;5.47;;;4.90;;
35897;SDS011;21997;47.118;15.346;2023-06-10T02:19:48;5.90;;;5.30;;
35897;SDS011;21997;47.118;15.346;2023-06-10T02:22:18;5.97;;;5.07;;
35897;SDS011;21997;47.118;15.346;2023-06-10T02:24:45;5.37;;;4.87;;
35897;SDS011;21997;47.118;15.346;2023-06-10T02:27:10;6.33;;;4.50;;
35897;SDS011;21997;47.118;15.346;2023-06-10T02:29:36;6.57;;;5.50;;
35897;SDS011;21997;47.118;15.346;2023-06-10T02:32:01;7.07;;;5.70;;
35897;SDS011;21997;47.118;15.346;2023-06-10T02:34:27;5.73;;;5.13;;
35897;SDS011;21997;47.118;15.346;2023-06-10T02:36:53;8.27;;;5.63;;
35897;SDS011;21997;47.118;15.346;2023-06-10T02:39:18;6.10;;;5.50;;
35897;SDS011;21997;47.118;15.346;2023-06-10T02:41:44;8.33;;;5.57;;
35897;SDS011;21997;47.118;15.346;2023-06-10T02:44:09;7.33;;;5.40;;
35897;SDS011;21997;47.118;15.346;2023-06-10T02:46:35;11.60;;;5.33;;
35897;SDS011;21997;47.118;15.346;2023-06-10T02:49:00;8.03;;;5.43;;
35897;SDS011;21997;47.118;15.346;2023-06-10T02:51:26;6.67;;;5.83;;
35897;SDS011;21997;47.118;15.346;2023-06-10T02:53:52;6.00;;;5.40;;
35897;SDS011;21997;47.118;15.346;2023-06-10T02:56:18;7.10;;;5.57;;
35897;SDS011;21997;47.118;15.346;2023-06-10T02:58:43;6.23;;;5.63;;
35897;SDS011;21997;47.118;15.346;2023-06-10T03:01:09;5.90;;;5.30;;
35897;SDS011;21997;47.118;15.346;2023-06-10T03:03:35;6.13;;;5.47;;
35897;SDS011;21997;47.118;15.346;2023-06-10T03:06:01;6.70;;;5.40;;
35897;SDS011;21997;47.118;15.346;2023-06-10T03:08:27;5.87;;;5.27;;
35897;SDS011;21997;47.118;15.346;2023-06-10T03:10:53;6.77;;;6.07;;
35897;SDS011;21997;47.118;15.346;2023-06-10T03:13:19;6.80;;;6.10;;
35897;SDS011;21997;47.118;15.346;2023-06-10T03:15:44;7.90;;;5.77;;
35897;SDS011;21997;47.118;15.346;2023-06-10T03:18:11;7.20;;;5.20;;
35897;SDS011;21997;47.118;15.346;2023-06-10T03:20:36;5.63;;;5.10;;
35897;SDS011;21997;47.118;15.346;2023-06-10T03:23:03;5.90;;;5.40;;
35897;SDS011;21997;47.118;15.346;2023-06-10T03:25:31;5.30;;;4.80;;
35897;SDS011;21997;47.118;15.346;2023-06-10T03:27:56;5.57;;;5.00;;
35897;SDS011;21997;47.118;15.346;2023-06-10T03:30:21;7.63;;;5.93;;
35897;SDS011;21997;47.118;15.346;2023-06-10T03:32:47;7.03;;;5.40;;
35897;SDS011;21997;47.118;15.346;2023-06-10T03:35:13;7.17;;;6.07;;
35897;SDS011;21997;47.118;15.346;2023-06-10T03:37:40;6.27;;;4.90;;
35897;SDS011;21997;47.118;15.346;2023-06-10T03:40:05;6.47;;;5.87;;
35897;SDS011;21997;47.118;15.346;2023-06-10T03:42:33;5.97;;;5.37;;
35897;SDS011;21997;47.118;15.346;2023-06-10T03:44:58;6.57;;;5.80;;
35897;SDS011;21997;47.118;15.346;2023-06-10T03:47:24;7.27;;;5.33;;
35897;SDS011;21997;47.118;15.346;2023-06-10T03:49:49;5.57;;;5.00;;
35897;SDS011;21997;47.118;15.346;2023-06-10T03:52:14;7.57;;;5.60;;
35897;SDS011;21997;47.118;15.346;2023-06-10T03:54:40;6.13;;;5.53;;
35897;SDS011;21997;47.118;15.346;2023-06-10T03:57:05;6.57;;;5.97;;
35897;SDS011;21997;47.118;15.346;2023-06-10T03:59:31;8.00;;;5.70;;
35897;SDS011;21997;47.118;15.346;2023-06-10T04:01:56;6.90;;;6.00;;
35897;SDS011;21997;47.118;15.346;2023-06-10T04:04:22;8.03;;;5.87;;
35897;SDS011;21997;47.118;15.346;2023-06-10T04:06:48;6.97;;;5.23;;
35897;SDS011;21997;47.118;15.346;2023-06-10T04:09:14;10.83;;;8.47;;
35897;SDS011;21997;47.118;15.346;2023-06-10T04:11:40;18.53;;;15.73;;
35897;SDS011;21997;47.118;15.346;2023-06-10T04:14:06;15.03;;;13.43;;
35897;SDS011;21997;47.118;15.346;2023-06-10T04:16:31;14.30;;;9.77;;
35897;SDS011;21997;47.118;15.346;2023-06-10T04:18:56;10.23;;;8.07;;
35897;SDS011;21997;47.118;15.346;2023-06-10T04:21:22;9.57;;;8.10;;
35897;SDS011;21997;47.118;15.346;2023-06-10T04:23:47;10.40;;;7.27;;
35897;SDS011;21997;47.118;15.346;2023-06-10T04:26:13;8.93;;;6.53;;
35897;SDS011;21997;47.118;15.346;2023-06-10T04:28:39;6.87;;;6.17;;
35897;SDS011;21997;47.118;15.346;2023-06-10T04:31:05;6.53;;;5.63;;
35897;SDS011;21997;47.118;15.346;2023-06-10T04:33:30;7.63;;;6.13;;
35897;SDS011;21997;47.118;15.346;2023-06-10T04:35:56;7.23;;;5.87;;
35897;SDS011;21997;47.118;15.346;2023-06-10T04:38:22;6.67;;;5.67;;
35897;SDS011;21997;47.118;15.346;2023-06-10T04:40:47;7.27;;;5.80;;
35897;SDS011;21997;47.118;15.346;2023-06-10T04:43:13;7.07;;;6.13;;
35897;SDS011;21997;47.118;15.346;2023-06-10T04:45:38;7.17;;;5.97;;
35897;SDS011;21997;47.118;15.346;2023-06-10T04:48:04;7.03;;;6.13;;
35897;SDS011;21997;47.118;15.346;2023-06-10T04:50:30;6.87;;;6.03;;
35897;SDS011;21997;47.118;15.346;2023-06-10T04:52:55;8.00;;;5.87;;
35897;SDS011;21997;47.118;15.346;2023-06-10T04:55:22;10.93;;;6.20;;
35897;SDS011;21997;47.118;15.346;2023-06-10T04:57:48;6.90;;;5.87;;
35897;SDS011;21997;47.118;15.346;2023-06-10T05:00:13;6.33;;;5.70;;
35897;SDS011;21997;47.118;15.346;2023-06-10T05:02:39;6.43;;;5.47;;
35897;SDS011;21997;47.118;15.346;2023-06-10T05:05:04;8.10;;;6.53;;
35897;SDS011;21997;47.118;15.346;2023-06-10T05:07:30;8.80;;;7.03;;
35897;SDS011;21997;47.118;15.346;2023-06-10T05:09:56;7.73;;;6.80;;
35897;SDS011;21997;47.118;15.346;2023-06-10T05:12:22;7.07;;;6.37;;
35897;SDS011;21997;47.118;15.346;2023-06-10T05:14:47;8.93;;;6.90;;
35897;SDS011;21997;47.118;15.346;2023-06-10T05:17:12;8.43;;;5.67;;
35897;SDS011;21997;47.118;15.346;2023-06-10T05:19:38;6.57;;;5.70;;
35897;SDS011;21997;47.118;15.346;2023-06-10T05:22:03;7.03;;;6.33;;
35897;SDS011;21997;47.118;15.346;2023-06-10T05:24:29;6.37;;;5.77;;
35897;SDS011;21997;47.118;15.346;2023-06-10T05:26:54;6.10;;;5.50;;
35897;SDS011;21997;47.118;15.346;2023-06-10T05:29:20;5.90;;;5.30;;
35897;SDS011;21997;47.118;15.346;2023-06-10T05:31:45;10.20;;;5.90;;
35897;SDS011;21997;47.118;15.346;2023-06-10T05:34:11;6.50;;;5.90;;
35897;SDS011;21997;47.118;15.346;2023-06-10T05:36:36;8.33;;;5.90;;
35897;SDS011;21997;47.118;15.346;2023-06-10T05:39:02;6.80;;;6.13;;
35897;SDS011;21997;47.118;15.346;2023-06-10T05:41:28;6.67;;;5.90;;
35897;SDS011;21997;47.118;15.346;2023-06-10T05:43:53;8.73;;;6.00;;
35897;SDS011;21997;47.118;15.346;2023-06-10T05:46:19;7.00;;;6.30;;
35897;SDS011;21997;47.118;15.346;2023-06-10T05:48:45;8.57;;;5.93;;
35897;SDS011;21997;47.118;15.346;2023-06-10T05:51:10;8.30;;;6.00;;
35897;SDS011;21997;47.118;15.346;2023-06-10T05:53:35;7.77;;;6.70;;
35897;SDS011;21997;47.118;15.346;2023-06-10T05:56:01;7.83;;;6.33;;
35897;SDS011;21997;47.118;15.346;2023-06-10T05:58:26;6.97;;;6.13;;
35897;SDS011;21997;47.118;15.346;2023-06-10T06:00:52;8.70;;;7.17;;
35897;SDS011;21997;47.118;15.346;2023-06-10T06:03:17;7.60;;;6.80;;
35897;SDS011;21997;47.118;15.346;2023-06-10T06:05:43;7.00;;;6.20;;
35897;SDS011;21997;47.118;15.346;2023-06-10T06:08:09;7.20;;;6.43;;
35897;SDS011;21997;47.118;15.346;2023-06-10T06:10:34;7.73;;;6.23;;
35897;SDS011;21997;47.118;15.346;2023-06-10T06:13:00;7.77;;;6.97;;
35897;SDS011;21997;47.118;15.346;2023-06-10T06:15:26;7.20;;;6.13;;
35897;SDS011;21997;47.118;15.346;2023-06-10T06:17:51;7.30;;;6.40;;
35897;SDS011;21997;47.118;15.346;2023-06-10T06:20:21;7.03;;;6.33;;
35897;SDS011;21997;47.118;15.346;2023-06-10T06:22:47;7.60;;;6.80;;
35897;SDS011;21997;47.118;15.346;2023-06-10T06:25:12;7.40;;;6.03;;
35897;SDS011;21997;47.118;15.346;2023-06-10T06:27:38;8.40;;;6.67;;
35897;SDS011;21997;47.118;15.346;2023-06-10T06:30:04;6.83;;;6.13;;
35897;SDS011;21997;47.118;15.346;2023-06-10T06:32:30;8.83;;;6.60;;
35897;SDS011;21997;47.118;15.346;2023-06-10T06:34:55;6.87;;;6.13;;
35897;SDS011;21997;47.118;15.346;2023-06-10T06:37:21;9.97;;;6.00;;
35897;SDS011;21997;47.118;15.346;2023-06-10T06:39:48;9.03;;;6.47;;
35897;SDS011;21997;47.118;15.346;2023-06-10T06:42:15;6.40;;;5.73;;
35897;SDS011;21997;47.118;15.346;2023-06-10T06:44:40;11.10;;;7.50;;
35897;SDS011;21997;47.118;15.346;2023-06-10T06:47:06;6.97;;;6.27;;
35897;SDS011;21997;47.118;15.346;2023-06-10T06:49:31;6.23;;;5.60;;
35897;SDS011;21997;47.118;15.346;2023-06-10T06:51:57;7.00;;;6.17;;
35897;SDS011;21997;47.118;15.346;2023-06-10T06:54:22;8.20;;;5.97;;
35897;SDS011;21997;47.118;15.346;2023-06-10T06:56:47;7.30;;;5.97;;
35897;SDS011;21997;47.118;15.346;2023-06-10T06:59:13;9.17;;;6.20;;
35897;SDS011;21997;47.118;15.346;2023-06-10T07:01:39;9.87;;;6.13;;
35897;SDS011;21997;47.118;15.346;2023-06-10T07:04:04;7.27;;;5.30;;
35897;SDS011;21997;47.118;15.346;2023-06-10T07:06:30;6.93;;;5.80;;
35897;SDS011;21997;47.118;15.346;2023-06-10T07:08:55;6.00;;;5.40;;
35897;SDS011;21997;47.118;15.346;2023-06-10T07:11:20;7.03;;;5.93;;
35897;SDS011;21997;47.118;15.346;2023-06-10T07:13:47;7.20;;;5.83;;
35897;SDS011;21997;47.118;15.346;2023-06-10T07:16:12;6.57;;;5.53;;
35897;SDS011;21997;47.118;15.346;2023-06-10T07:18:37;5.83;;;5.27;;
35897;SDS011;21997;47.118;15.346;2023-06-10T07:21:03;8.37;;;6.03;;
35897;SDS011;21997;47.118;15.346;2023-06-10T07:23:28;6.60;;;5.77;;
35897;SDS011;21997;47.118;15.346;2023-06-10T07:25:53;5.83;;;4.97;;
35897;SDS011;21997;47.118;15.346;2023-06-10T07:28:19;6.60;;;4.90;;
35897;SDS011;21997;47.118;15.346;2023-06-10T07:30:44;6.60;;;5.27;;
35897;SDS011;21997;47.118;15.346;2023-06-10T07:33:10;5.47;;;4.67;;
35897;SDS011;21997;47.118;15.346;2023-06-10T07:35:36;6.60;;;5.67;;
35897;SDS011;21997;47.118;15.346;2023-06-10T07:38:01;5.43;;;4.93;;
35897;SDS011;21997;47.118;15.346;2023-06-10T07:40:26;5.30;;;4.80;;
35897;SDS011;21997;47.118;15.346;2023-06-10T07:42:52;7.93;;;5.40;;
35897;SDS011;21997;47.118;15.346;2023-06-10T07:45:18;6.03;;;5.47;;
35897;SDS011;21997;47.118;15.346;2023-06-10T07:47:43;5.63;;;5.10;;
35897;SDS011;21997;47.118;15.346;2023-06-10T07:50:09;6.87;;;5.73;;
35897;SDS011;21997;47.118;15.346;2023-06-10T07:52:34;7.00;;;5.80;;
35897;SDS011;21997;47.118;15.346;2023-06-10T07:55:00;6.10;;;5.53;;
35897;SDS011;21997;47.118;15.346;2023-06-10T07:57:25;6.43;;;5.57;;
35897;SDS011;21997;47.118;15.346;2023-06-10T07:59:50;6.00;;;5.40;;
35897;SDS011;21997;47.118;15.346;2023-06-10T08:02:16;5.40;;;4.90;;
35897;SDS011;21997;47.118;15.346;2023-06-10T08:04:41;6.77;;;5.80;;
35897;SDS011;21997;47.118;15.346;2023-06-10T08:07:06;7.10;;;5.70;;
35897;SDS011;21997;47.118;15.346;2023-06-10T08:09:32;5.40;;;4.90;;
35897;SDS011;21997;47.118;15.346;2023-06-10T08:11:57;6.27;;;5.73;;
35897;SDS011;21997;47.118;15.346;2023-06-10T08:14:23;5.80;;;5.20;;
35897;SDS011;21997;47.118;15.346;2023-06-10T08:16:48;6.03;;;5.17;;
35897;SDS011;21997;47.118;15.346;2023-06-10T08:19:13;6.10;;;5.50;;
35897;SDS011;21997;47.118;15.346;2023-06-10T08:21:39;7.10;;;6.00;;
35897;SDS011;21997;47.118;15.346;2023-06-10T08:24:05;7.07;;;5.13;;
35897;SDS011;21997;47.118;15.346;2023-06-10T08:26:31;7.03;;;5.37;;
35897;SDS011;21997;47.118;15.346;2023-06-10T08:28:56;6.67;;;5.50;;
35897;SDS011;21997;47.118;15.346;2023-06-10T08:31:22;6.67;;;5.10;;
35897;SDS011;21997;47.118;15.346;2023-06-10T08:33:47;7.53;;;5.50;;
35897;SDS011;21997;47.118;15.346;2023-06-10T08:36:13;6.33;;;5.17;;
35897;SDS011;21997;47.118;15.346;2023-06-10T08:38:38;6.77;;;5.43;;
35897;SDS011;21997;47.118;15.346;2023-06-10T08:41:05;6.83;;;6.13;;
35897;SDS011;21997;47.118;15.346;2023-06-10T08:43:37;5.77;;;5.17;;
35897;SDS011;21997;47.118;15.346;2023-06-10T08:46:04;5.73;;;5.23;;
35897;SDS011;21997;47.118;15.346;2023-06-10T08:48:31;5.33;;;4.83;;
35897;SDS011;21997;47.118;15.346;2023-06-10T08:51:00;5.47;;;5.00;;
35897;SDS011;21997;47.118;15.346;2023-06-10T08:53:26;6.43;;;5.53;;
35897;SDS011;21997;47.118;15.346;2023-06-10T08:55:51;6.10;;;5.37;;
35897;SDS011;21997;47.118;15.346;2023-06-10T08:58:17;6.00;;;5.40;;
35897;SDS011;21997;47.118;15.346;2023-06-10T09:00:44;6.67;;;5.93;;
35897;SDS011;21997;47.118;15.346;2023-06-10T09:03:10;7.03;;;5.43;;
35897;SDS011;21997;47.118;15.346;2023-06-10T09:05:35;6.33;;;5.60;;
35897;SDS011;21997;47.118;15.346;2023-06-10T09:08:01;5.57;;;5.07;;
35897;SDS011;21997;47.118;15.346;2023-06-10T09:10:27;5.70;;;5.07;;
35897;SDS011;21997;47.118;15.346;2023-06-10T09:12:53;5.93;;;5.43;;
35897;SDS011;21997;47.118;15.346;2023-06-10T09:15:18;5.03;;;4.57;;
35897;SDS011;21997;47.118;15.346;2023-06-10T09:17:44;6.27;;;5.37;;
35897;SDS011;21997;47.118;15.346;2023-06-10T09:20:10;3.97;;;3.67;;
35897;SDS011;21997;47.118;15.346;2023-06-10T09:22:36;5.50;;;4.93;;
35897;SDS011;21997;47.118;15.346;2023-06-10T09:25:11;5.27;;;4.77;;
35897;SDS011;21997;47.118;15.346;2023-06-10T09:27:58;6.70;;;5.47;;
35897;SDS011;21997;47.118;15.346;2023-06-10T09:30:30;6.70;;;6.07;;
35897;SDS011;21997;47.118;15.346;2023-06-10T09:32:56;6.10;;;5.50;;
35897;SDS011;21997;47.118;15.346;2023-06-10T09:35:23;5.70;;;5.17;;
35897;SDS011;21997;47.118;15.346;2023-06-10T09:37:50;5.27;;;4.77;;
35897;SDS011;21997;47.118;15.346;2023-06-10T09:40:16;6.27;;;5.47;;
35897;SDS011;21997;47.118;15.346;2023-06-10T09:42:42;5.07;;;4.57;;
35897;SDS011;21997;47.118;15.346;2023-06-10T09:45:07;6.67;;;4.90;;
35897;SDS011;21997;47.118;15.346;2023-06-10T09:47:33;5.43;;;4.90;;
35897;SDS011;21997;47.118;15.346;2023-06-10T09:49:59;5.13;;;4.70;;
35897;SDS011;21997;47.118;15.346;2023-06-10T09:52:25;5.73;;;5.13;;
35897;SDS011;21997;47.118;15.346;2023-06-10T09:54:51;5.67;;;5.17;;
35897;SDS011;21997;47.118;15.346;2023-06-10T09:57:17;5.50;;;5.00;;
35897;SDS011;21997;47.118;15.346;2023-06-10T09:59:44;6.50;;;5.33;;
35897;SDS011;21997;47.118;15.346;2023-06-10T10:02:17;6.87;;;4.93;;
35897;SDS011;21997;47.118;15.346;2023-06-10T10:04:43;5.10;;;4.57;;
35897;SDS011;21997;47.118;15.346;2023-06-10T10:07:09;7.23;;;6.50;;
35897;SDS011;21997;47.118;15.346;2023-06-10T10:09:36;17.17;;;12.37;;
35897;SDS011;21997;47.118;15.346;2023-06-10T10:12:11;7.73;;;6.10;;
35897;SDS011;21997;47.118;15.346;2023-06-10T10:14:38;9.27;;;5.90;;
35897;SDS011;21997;47.118;15.346;2023-06-10T10:17:06;6.43;;;5.83;;
35897;SDS011;21997;47.118;15.346;2023-06-10T10:19:33;5.23;;;4.77;;
35897;SDS011;21997;47.118;15.346;2023-06-10T10:22:06;6.30;;;5.20;;
35897;SDS011;21997;47.118;15.346;2023-06-10T10:24:36;5.80;;;5.13;;
35897;SDS011;21997;47.118;15.346;2023-06-10T10:27:11;7.10;;;6.40;;
35897;SDS011;21997;47.118;15.346;2023-06-10T10:29:44;5.90;;;5.40;;
35897;SDS011;21997;47.118;15.346;2023-06-10T10:32:13;4.53;;;4.13;;
35897;SDS011;21997;47.118;15.346;2023-06-10T10:37:15;18.43;;;14.83;;
35897;SDS011;21997;47.118;15.346;2023-06-10T10:39:42;6.23;;;5.63;;
35897;SDS011;21997;47.118;15.346;2023-06-10T10:42:08;4.77;;;4.27;;
35897;SDS011;21997;47.118;15.346;2023-06-10T10:44:40;5.10;;;4.63;;
35897;SDS011;21997;47.118;15.346;2023-06-10T10:47:07;5.97;;;5.03;;
35897;SDS011;21997;47.118;15.346;2023-06-10T10:49:34;4.73;;;4.23;;
35897;SDS011;21997;47.118;15.346;2023-06-10T10:52:01;6.13;;;5.50;;
35897;SDS011;21997;47.118;15.346;2023-06-10T10:54:31;6.00;;;4.97;;
35897;SDS011;21997;47.118;15.346;2023-06-10T10:57:12;5.60;;;5.10;;
35897;SDS011;21997;47.118;15.346;2023-06-10T11:02:17;5.30;;;4.90;;
35897;SDS011;21997;47.118;15.346;2023-06-10T11:04:46;4.97;;;4.47;;
35897;SDS011;21997;47.118;15.346;2023-06-10T11:07:12;4.27;;;3.90;;
35897;SDS011;21997;47.118;15.346;2023-06-10T11:09:40;4.50;;;4.10;;
35897;SDS011;21997;47.118;15.346;2023-06-10T11:12:22;4.80;;;4.40;;
35897;SDS011;21997;47.118;15.346;2023-06-10T11:14:53;4.03;;;3.63;;
35897;SDS011;21997;47.118;15.346;2023-06-10T11:17:20;3.23;;;3.03;;
35897;SDS011;21997;47.118;15.346;2023-06-10T11:19:45;6.07;;;4.50;;
35897;SDS011;21997;47.118;15.346;2023-06-10T11:22:15;6.00;;;5.00;;
35897;SDS011;21997;47.118;15.346;2023-06-10T11:24:41;5.70;;;5.10;;
35897;SDS011;21997;47.118;15.346;2023-06-10T11:27:20;5.97;;;5.37;;
35897;SDS011;21997;47.118;15.346;2023-06-10T11:32:34;5.37;;;4.87;;
35897;SDS011;21997;47.118;15.346;2023-06-10T11:35:02;5.33;;;4.83;;
35897;SDS011;21997;47.118;15.346;2023-06-10T11:37:28;5.43;;;4.93;;
35897;SDS011;21997;47.118;15.346;2023-06-10T11:39:54;5.53;;;5.10;;
35897;SDS011;21997;47.118;15.346;2023-06-10T11:42:20;5.03;;;4.53;;
35897;SDS011;21997;47.118;15.346;2023-06-10T11:44:52;5.97;;;5.47;;
35897;SDS011;21997;47.118;15.346;2023-06-10T11:47:18;5.43;;;4.93;;
35897;SDS011;21997;47.118;15.346;2023-06-10T11:49:45;5.53;;;5.13;;
35897;SDS011;21997;47.118;15.346;2023-06-10T11:52:10;5.70;;;5.20;;
35897;SDS011;21997;47.118;15.346;2023-06-10T11:54:37;5.03;;;4.63;;
35897;SDS011;21997;47.118;15.346;2023-06-10T11:57:03;5.33;;;4.90;;
35897;SDS011;21997;47.118;15.346;2023-06-10T11:59:29;5.20;;;4.60;;
35897;SDS011;21997;47.118;15.346;2023-06-10T12:01:55;5.40;;;4.90;;
35897;SDS011;21997;47.118;15.346;2023-06-10T12:04:20;4.57;;;4.17;;
35897;SDS011;21997;47.118;15.346;2023-06-10T12:06:51;5.77;;;5.27;;
35897;SDS011;21997;47.118;15.346;2023-06-10T12:09:18;5.43;;;4.93;;
35897;SDS011;21997;47.118;15.346;2023-06-10T12:11:48;5.63;;;5.00;;
35897;SDS011;21997;47.118;15.346;2023-06-10T12:17:35;5.50;;;4.87;;
35897;SDS011;21997;47.118;15.346;2023-06-10T12:20:06;4.97;;;4.47;;
35897;SDS011;21997;47.118;15.346;2023-06-10T12:22:43;5.20;;;4.70;;
35897;SDS011;21997;47.118;15.346;2023-06-10T12:25:09;5.00;;;4.60;;
35897;SDS011;21997;47.118;15.346;2023-06-10T12:27:35;4.03;;;3.73;;
35897;SDS011;21997;47.118;15.346;2023-06-10T12:30:02;3.83;;;3.53;;
35897;SDS011;21997;47.118;15.346;2023-06-10T12:32:42;4.63;;;4.23;;
35897;SDS011;21997;47.118;15.346;2023-06-10T12:35:09;4.67;;;4.00;;
35897;SDS011;21997;47.118;15.346;2023-06-10T12:37:36;3.80;;;3.50;;
35897;SDS011;21997;47.118;15.346;2023-06-10T12:40:02;3.73;;;3.43;;
35897;SDS011;21997;47.118;15.346;2023-06-10T12:42:29;4.00;;;3.60;;
35897;SDS011;21997;47.118;15.346;2023-06-10T12:44:55;4.57;;;4.00;;
35897;SDS011;21997;47.118;15.346;2023-06-10T12:47:28;4.07;;;3.77;;
35897;SDS011;21997;47.118;15.346;2023-06-10T12:49:56;4.10;;;3.80;;
35897;SDS011;21997;47.118;15.346;2023-06-10T12:52:22;3.67;;;3.37;;
35897;SDS011;21997;47.118;15.346;2023-06-10T12:54:47;3.20;;;2.90;;
35897;SDS011;21997;47.118;15.346;2023-06-10T12:57:13;3.73;;;3.43;;
35897;SDS011;21997;47.118;15.346;2023-06-10T12:59:39;9.73;;;4.07;;
35897;SDS011;21997;47.118;15.346;2023-06-10T13:02:05;11.20;;;3.40;;
35897;SDS011;21997;47.118;15.346;2023-06-10T13:04:30;2.70;;;2.50;;
35897;SDS011;21997;47.118;15.346;2023-06-10T13:06:56;2.70;;;2.13;;
35897;SDS011;21997;47.118;15.346;2023-06-10T13:09:21;6.17;;;3.00;;
35897;SDS011;21997;47.118;15.346;2023-06-10T13:11:46;2.87;;;2.43;;
35897;SDS011;21997;47.118;15.346;2023-06-10T13:14:12;1.77;;;1.67;;
35897;SDS011;21997;47.118;15.346;2023-06-10T13:16:37;1.80;;;1.50;;
35897;SDS011;21997;47.118;15.346;2023-06-10T13:19:04;2.97;;;1.57;;
35897;SDS011;21997;47.118;15.346;2023-06-10T13:21:31;2.60;;;2.10;;
35897;SDS011;21997;47.118;15.346;2023-06-10T13:23:57;2.77;;;1.97;;
35897;SDS011;21997;47.118;15.346;2023-06-10T13:26:22;3.43;;;2.67;;
35897;SDS011;21997;47.118;15.346;2023-06-10T13:28:48;3.70;;;3.40;;
35897;SDS011;21997;47.118;15.346;2023-06-10T13:31:13;3.43;;;3.13;;
35897;SDS011;21997;47.118;15.346;2023-06-10T13:33:39;3.63;;;3.33;;
35897;SDS011;21997;47.118;15.346;2023-06-10T13:36:05;4.17;;;3.60;;
35897;SDS011;21997;47.118;15.346;2023-06-10T13:38:30;3.80;;;3.30;;
35897;SDS011;21997;47.118;15.346;2023-06-10T13:40:55;3.50;;;3.20;;
35897;SDS011;21997;47.118;15.346;2023-06-10T13:43:21;3.30;;;3.00;;
35897;SDS011;21997;47.118;15.346;2023-06-10T13:45:46;3.10;;;2.80;;
35897;SDS011;21997;47.118;15.346;2023-06-10T13:48:12;3.70;;;3.40;;
35897;SDS011;21997;47.118;15.346;2023-06-10T13:50:37;4.20;;;3.50;;
35897;SDS011;21997;47.118;15.346;2023-06-10T13:53:03;3.63;;;3.33;;
35897;SDS011;21997;47.118;15.346;2023-06-10T13:55:28;3.60;;;3.30;;
35897;SDS011;21997;47.118;15.346;2023-06-10T13:57:53;3.83;;;3.53;;
35897;SDS011;21997;47.118;15.346;2023-06-10T14:00:19;5.73;;;4.00;;
35897;SDS011;21997;47.118;15.346;2023-06-10T14:02:44;3.97;;;3.57;;
35897;SDS011;21997;47.118;15.346;2023-06-10T14:05:11;3.87;;;3.23;;
35897;SDS011;21997;47.118;15.346;2023-06-10T14:07:36;4.20;;;3.80;;
35897;SDS011;21997;47.118;15.346;2023-06-10T14:10:02;4.37;;;3.97;;
35897;SDS011;21997;47.118;15.346;2023-06-10T14:12:28;4.33;;;3.97;;
35897;SDS011;21997;47.118;15.346;2023-06-10T14:14:53;4.30;;;3.90;;
35897;SDS011;21997;47.118;15.346;2023-06-10T14:17:19;4.57;;;4.17;;
35897;SDS011;21997;47.118;15.346;2023-06-10T14:19:44;4.10;;;3.77;;
35897;SDS011;21997;47.118;15.346;2023-06-10T14:22:10;4.70;;;4.30;;
35897;SDS011;21997;47.118;15.346;2023-06-10T14:24:35;6.20;;;4.13;;
35897;SDS011;21997;47.118;15.346;2023-06-10T14:27:01;4.60;;;4.20;;
35897;SDS011;21997;47.118;15.346;2023-06-10T14:29:26;4.63;;;4.23;;
35897;SDS011;21997;47.118;15.346;2023-06-10T14:31:54;3.83;;;3.50;;
35897;SDS011;21997;47.118;15.346;2023-06-10T14:34:19;4.27;;;3.93;;
35897;SDS011;21997;47.118;15.346;2023-06-10T14:36:45;6.20;;;4.10;;
35897;SDS011;21997;47.118;15.346;2023-06-10T14:39:10;5.30;;;4.80;;
35897;SDS011;21997;47.118;15.346;2023-06-10T14:41:36;5.80;;;5.30;;